Time;durP1;ratioP1;P1;durP2;ratioP2;P2;SDS_P1;SDS_P2;PMS_P1;PMS_P2;Temp;Humidity;BMP_temperature;BMP_pressure;BME280_temperature;BME280_humidity;BME280_pressure;Samples;Min_cycle;Max_cycle;Signal;HPM_P1;HPM_P2
2021/08/07 00:02:17;;;;;;;;;;;;;;;;;;10208347;28;19918;-67
2021/08/07 00:07:15;;;;;;;;;;;;;;;;;;10230913;28;19921;-68
2021/08/07 00:12:12;;;;;;;;;;;;;;;;;;10242011;28;20013;-71
2021/08/07 00:17:09;;;;;;;;;;;;;;;;;;10214995;28;19945;-68
2021/08/07 00:22:06;;;;;;;;;;;;;;;;;;10219482;28;19918;-68
2021/08/07 00:27:04;;;;;;;;;;;;;;;;;;10217789;28;19921;-69
2021/08/07 00:32:02;;;;;;;;;;;;;;;;;;10220495;28;20260;-69
2021/08/07 00:37:03;;;;;;;;;;;;;;;;;;10224033;28;19922;-69
2021/08/07 00:42:01;;;;;;;;;;;;;;;;;;10217924;28;20084;-66
2021/08/07 00:47:00;;;;;;;;;;;;;;;;;;10234646;28;20394;-68
2021/08/07 00:51:59;;;;;;;;;;;;;;;;;;10215212;28;20756;-68
2021/08/07 00:56:58;;;;;;;;;;;;;;;;;;10221467;28;20445;-68
2021/08/07 01:01:55;;;;;;;;;;;;;;;;;;10220241;28;19984;-68
2021/08/07 01:06:57;;;;;;;;;;;;;;;;;;10223234;28;19993;-68
2021/08/07 01:11:55;;;;;;;;;;;;;;;;;;10223190;28;20130;-68
2021/08/07 01:16:53;;;;;;;;;;;;;;;;;;10208982;28;19990;-70
2021/08/07 01:21:50;;;;;;;;;;;;;;;;;;10222450;28;19918;-70
2021/08/07 01:26:49;;;;;;;;;;;;;;;;;;10211589;28;19926;-68
2021/08/07 01:31:50;;;;;;;;;;;;;;;;;;10201474;28;19925;-69
2021/08/07 01:36:51;;;;;;;;;;;;;;;;;;10213362;28;19918;-70
2021/08/07 01:42:07;;;;;;;;;;;;;;;;;;10234539;28;20355;-68
2021/08/07 01:47:04;;;;;;;;;;;;;;;;;;10217059;28;19988;-70
2021/08/07 01:52:06;;;;;;;;;;;;;;;;;;10208081;28;20396;-70
2021/08/07 01:57:14;;;;;;;;;;;;;;;;;;10212505;28;19926;-69
2021/08/07 02:02:12;;;;;;;;;;;;;;;;;;10215802;28;20285;-69
2021/08/07 02:07:28;;;;;;;;;;;;;;;;;;10219849;28;19932;-69
2021/08/07 02:12:31;;;;;;;;;;;;;;;;;;10225898;28;20407;-70
2021/08/07 02:17:36;;;;;;;;;;;;;;;;;;10217836;28;19933;-72
2021/08/07 02:22:33;;;;;;;;;;;;;;;;;;10227591;28;20268;-69
2021/08/07 02:27:31;;;;;;;;;;;;;;;;;;10256041;28;19976;-69
2021/08/07 02:32:28;;;;;;;;;;;;;;;;;;10199318;28;20017;-69
2021/08/07 02:37:30;;;;;;;;;;;;;;;;;;10259608;28;19921;-68
2021/08/07 02:42:27;;;;;;;;;;;;;;;;;;10227099;28;20336;-69
2021/08/07 02:47:24;;;;;;;;;;;;;;;;;;10238904;28;20026;-68
2021/08/07 02:52:25;;;;;;;;;;;;;;;;;;10205157;28;19929;-70
2021/08/07 02:57:23;;;;;;;;;;;;;;;;;;10216665;28;19922;-70
2021/08/07 03:02:20;;;;;;;;;;;;;;;;;;10232599;28;20004;-69
2021/08/07 03:07:20;;;;;;;;;;;;;;;;;;10239091;28;20371;-70
2021/08/07 03:12:18;;;;;;;;;;;;;;;;;;10229367;28;19926;-69
2021/08/07 03:17:15;;;;;;;;;;;;;;;;;;10237226;28;19928;-71
2021/08/07 03:22:17;;;;;;;;;;;;;;;;;;10235178;28;19971;-71
2021/08/07 03:27:14;;;;;;;;;;;;;;;;;;10264477;28;19925;-71
2021/08/07 03:32:16;;;;;;;;;;;;;;;;;;10245167;28;19918;-69
2021/08/07 03:37:14;;;;;;;;;;;;;;;;;;10266817;28;19921;-70
2021/08/07 03:42:20;;;;;;;;;;;;;;;;;;10234409;28;20063;-69
2021/08/07 03:47:18;;;;;;;;;;;;;;;;;;10204916;28;20093;-69
2021/08/07 03:52:16;;;;;;;;;;;;;;;;;;10206853;28;19924;-71
2021/08/07 03:57:16;;;;;;;;;;;;;;;;;;10223886;28;19929;-70
2021/08/07 04:02:13;;;;;;;;;;;;;;;;;;10231419;28;19924;-70
2021/08/07 04:07:11;;;;;;;;;;;;;;;;;;10220352;28;20342;-72
2021/08/07 04:12:21;;;;;;;;;;;;;;;;;;10238722;28;19925;-70
2021/08/07 04:17:18;;;;;;;;;;;;;;;;;;10222827;28;19926;-69
2021/08/07 04:22:15;;;;;;;;;;;;;;;;;;10221863;28;19921;-68
2021/08/07 04:27:14;;;;;;;;;;;;;;;;;;10221216;28;20407;-69
2021/08/07 04:32:12;;;;;;;;;;;;;;;;;;10251803;28;20229;-69
2021/08/07 04:37:09;;;;;;;;;;;;;;;;;;10237030;28;19968;-69
2021/08/07 04:42:07;;;;;;;;;;;;;;;;;;10221005;28;19924;-70
2021/08/07 04:47:05;;;;;;;;;;;;;;;;;;10220668;28;20386;-68
2021/08/07 04:52:04;;;;;;;;;;;;;;;;;;10219588;28;20037;-69
2021/08/07 04:57:03;;;;;;;;;;;;;;;;;;10218792;28;20226;-69
2021/08/07 05:02:00;;;;;;;;;;;;;;;;;;10228469;28;20017;-69
2021/08/07 05:06:57;;;;;;;;;;;;;;;;;;10201713;28;19945;-70
2021/08/07 05:11:54;;;;;;;;;;;;;;;;;;10173974;28;19940;-70
2021/08/07 05:16:52;;;;;;;;;;;;;;;;;;10176743;28;20523;-71
2021/08/07 05:21:49;;;;;;;;;;;;;;;;;;10197504;28;19918;-68
2021/08/07 05:26:47;;;;;;;;;;;;;;;;;;10198827;28;19921;-69
2021/08/07 05:31:46;;;;;;;;;;;;;;;;;;10195501;28;19957;-71
2021/08/07 05:36:44;;;;;;;;;;;;;;;;;;10178059;28;19953;-68
2021/08/07 05:41:42;;;;;;;;;;;;;;;;;;10200978;28;19929;-70
2021/08/07 05:46:39;;;;;;;;;;;;;;;;;;10176952;28;19925;-70
2021/08/07 05:51:37;;;;;;;;;;;;;;;;;;10194340;28;19921;-68
2021/08/07 05:56:35;;;;;;;;;;;;;;;;;;10174335;28;19918;-69
2021/08/07 06:01:32;;;;;;;;;;;;;;;;;;10183453;28;19930;-67
2021/08/07 06:06:30;;;;;;;;;;;;;;;;;;10183810;28;19969;-69
2021/08/07 06:11:27;;;;;;;;;;;;;;;;;;10182934;28;20384;-68
2021/08/07 06:16:25;;;;;;;;;;;;;;;;;;10195724;28;20534;-69
2021/08/07 06:21:22;;;;;;;;;;;;;;;;;;10188154;28;20467;-67
2021/08/07 06:26:19;;;;;;;;;;;;;;;;;;10210614;28;20141;-68
2021/08/07 06:31:16;;;;;;;;;;;;;;;;;;10187391;28;20156;-66
2021/08/07 06:36:14;;;;;;;;;;;;;;;;;;10175210;28;19965;-69
2021/08/07 06:41:11;;;;;;;;;;;;;;;;;;10185541;28;19926;-66
2021/08/07 06:46:26;;;;;;;;;;;;;;;;;;10188762;28;19922;-68
2021/08/07 06:51:23;;;;;;;;;;;;;;;;;;10186787;28;19973;-69
2021/08/07 06:56:20;;;;;;;;;;;;;;;;;;10200135;28;20459;-70
2021/08/07 07:01:18;;;;;;;;;;;;;;;;;;10189059;28;19945;-69
2021/08/07 07:06:16;;;;;;;;;;;;;;;;;;10201911;28;19925;-69
2021/08/07 07:11:13;;;;;;;;;;;;;;;;;;10202329;28;20435;-71
2021/08/07 07:16:10;;;;;;;;;;;;;;;;;;10201938;28;19922;-66
2021/08/07 07:21:09;;;;;;;;;;;;;;;;;;10196529;28;19944;-70
2021/08/07 07:26:06;;;;;;;;;;;;;;;;;;10189968;28;19921;-75
2021/08/07 07:31:05;;;;;;;;;;;;;;;;;;10208552;28;20016;-71
2021/08/07 07:36:03;;;;;;;;;;;;;;;;;;10210387;28;20012;-74
2021/08/07 07:41:00;;;;;;;;;;;;;;;;;;10208879;28;19926;-72
2021/08/07 07:45:57;;;;;;;;;;;;;;;;;;10192916;28;20388;-70
2021/08/07 07:50:54;;;;;;;;;;;;;;;;;;10201632;28;19918;-72
2021/08/07 07:55:52;;;;;;;;;;;;;;;;;;10182768;28;19944;-72
2021/08/07 08:00:50;;;;;;;;;;;;;;;;;;10196522;28;19977;-71
2021/08/07 08:05:48;;;;;;;;;;;;;;;;;;10208581;28;19929;-68
2021/08/07 08:10:45;;;;;;;;;;;;;;;;;;10203695;28;19918;-68
2021/08/07 08:15:48;;;;;;;;;;;;;;;;;;10187405;28;19929;-67
2021/08/07 08:20:47;;;;;;;;;;;;;;;;;;10182276;28;19996;-68
2021/08/07 08:25:45;;;;;;;;;;;;;;;;;;10197774;28;19980;-68
2021/08/07 08:30:43;;;;;;;;;;;;;;;;;;10205607;28;19922;-68
2021/08/07 08:35:42;;;;;;;;;;;;;;;;;;10203296;28;20482;-70
2021/08/07 08:40:39;;;;;;;;;;;;;;;;;;10189125;28;19925;-68
2021/08/07 08:45:37;;;;;;;;;;;;;;;;;;10200389;28;19924;-67
2021/08/07 08:50:34;;;;;;;;;;;;;;;;;;10208040;28;19918;-66
2021/08/07 08:55:32;;;;;;;;;;;;;;;;;;10205739;28;19929;-68
2021/08/07 09:00:30;;;;;;;;;;;;;;;;;;10187476;28;19922;-67
2021/08/07 09:05:27;;;;;;;;;;;;;;;;;;10211932;28;20123;-67
2021/08/07 09:10:24;;;;;;;;;;;;;;;;;;10198556;28;20824;-67
2021/08/07 09:15:24;;;;;;;;;;;;;;;;;;10193888;28;19918;-66
2021/08/07 09:20:22;;;;;;;;;;;;;;;;;;10207075;28;20523;-67
2021/08/07 09:25:23;;;;;;;;;;;;;;;;;;10200137;28;19997;-67
2021/08/07 09:30:22;;;;;;;;;;;;;;;;;;10174575;28;20490;-67
2021/08/07 09:35:22;;;;;;;;;;;;;;;;;;10194930;28;19934;-67
2021/08/07 09:40:19;;;;;;;;;;;;;;;;;;10206541;28;19926;-66
2021/08/07 09:45:17;;;;;;;;;;;;;;;;;;10197620;28;19918;-64
2021/08/07 09:50:14;;;;;;;;;;;;;;;;;;10184242;28;19972;-67
2021/08/07 09:55:11;;;;;;;;;;;;;;;;;;10194236;28;20009;-67
2021/08/07 10:00:09;;;;;;;;;;;;;;;;;;10181106;28;20315;-65
2021/08/07 10:05:13;;;;;;;;;;;;;;;;;;10187622;28;19918;-67
2021/08/07 10:10:11;;;;;;;;;;;;;;;;;;10203830;28;19917;-66
2021/08/07 10:15:09;;;;;;;;;;;;;;;;;;10186840;28;19917;-66
2021/08/07 10:20:06;;;;;;;;;;;;;;;;;;10210750;28;19922;-66
2021/08/07 10:25:07;;;;;;;;;;;;;;;;;;10190096;28;19932;-68
2021/08/07 10:30:06;;;;;;;;;;;;;;;;;;10184708;28;19924;-69
2021/08/07 10:35:05;;;;;;;;;;;;;;;;;;10202973;28;19918;-68
2021/08/07 10:40:02;;;;;;;;;;;;;;;;;;10198331;28;19937;-68
2021/08/07 10:45:00;;;;;;;;;;;;;;;;;;10190407;28;19922;-67
2021/08/07 10:49:59;;;;;;;;;;;;;;;;;;10209333;28;20467;-68
2021/08/07 10:54:56;;;;;;;;;;;;;;;;;;10205903;28;20323;-67
2021/08/07 10:59:53;;;;;;;;;;;;;;;;;;10197770;28;19922;-66
2021/08/07 11:04:51;;;;;;;;;;;;;;;;;;10198514;28;19929;-68
2021/08/07 11:09:48;;;;;;;;;;;;;;;;;;10199624;28;19918;-67
2021/08/07 11:14:47;;;;;;;;;;;;;;;;;;10180068;28;20013;-68
2021/08/07 11:19:44;;;;;;;;;;;;;;;;;;10190530;28;19933;-69
2021/08/07 11:24:41;;;;;;;;;;;;;;;;;;10185975;28;20337;-69
2021/08/07 11:29:39;;;;;;;;;;;;;;;;;;10199281;28;20000;-67
2021/08/07 11:34:36;;;;;;;;;;;;;;;;;;10196454;28;19922;-69
2021/08/07 11:39:33;;;;;;;;;;;;;;;;;;10197404;28;19922;-70
2021/08/07 11:44:30;;;;;;;;;;;;;;;;;;10196791;28;19918;-72
2021/08/07 11:49:28;;;;;;;;;;;;;;;;;;10201289;28;19918;-69
2021/08/07 11:54:25;;;;;;;;;;;;;;;;;;10205217;28;19926;-68
2021/08/07 11:59:28;;;;;;;;;;;;;;;;;;10206339;28;19923;-68
2021/08/07 12:04:25;;;;;;;;;;;;;;;;;;10194681;28;19942;-68
2021/08/07 12:09:23;;;;;;;;;;;;;;;;;;10200108;28;19949;-69
2021/08/07 12:14:20;;;;;;;;;;;;;;;;;;10202537;28;19922;-69
2021/08/07 12:19:17;;;;;;;;;;;;;;;;;;10197970;28;19934;-66
2021/08/07 12:24:14;;;;;;;;;;;;;;;;;;10193238;28;20009;-69
2021/08/07 12:29:12;;;;;;;;;;;;;;;;;;10200672;28;20434;-69
2021/08/07 12:34:09;;;;;;;;;;;;;;;;;;10197207;28;20017;-68
2021/08/07 12:39:06;;;;;;;;;;;;;;;;;;10195822;28;19921;-70
2021/08/07 12:44:04;;;;;;;;;;;;;;;;;;10189234;28;21122;-69
2021/08/07 12:49:01;;;;;;;;;;;;;;;;;;10193582;28;19980;-70
2021/08/07 12:53:59;;;;;;;;;;;;;;;;;;10201053;28;20348;-71
2021/08/07 12:58:56;;;;;;;;;;;;;;;;;;10198411;28;19918;-70
2021/08/07 13:03:54;;;;;;;;;;;;;;;;;;10189028;28;19922;-71
2021/08/07 13:08:51;;;;;;;;;;;;;;;;;;10192463;28;19936;-70
2021/08/07 13:13:49;;;;;;;;;;;;;;;;;;10189588;28;20552;-71
2021/08/07 13:18:46;;;;;;;;;;;;;;;;;;10193416;28;20987;-71
2021/08/07 13:23:43;;;;;;;;;;;;;;;;;;10196080;28;19924;-69
2021/08/07 13:28:40;;;;;;;;;;;;;;;;;;10186975;28;19928;-66
2021/08/07 13:33:38;;;;;;;;;;;;;;;;;;10199322;28;20012;-67
2021/08/07 13:38:35;;;;;;;;;;;;;;;;;;10201872;28;19944;-65
2021/08/07 13:43:33;;;;;;;;;;;;;;;;;;10174855;28;19918;-65
2021/08/07 13:48:31;;;;;;;;;;;;;;;;;;10182071;28;19918;-67
2021/08/07 13:53:28;;;;;;;;;;;;;;;;;;10205832;28;20248;-64
2021/08/07 13:58:26;;;;;;;;;;;;;;;;;;10188180;28;19944;-67
2021/08/07 14:03:24;;;;;;;;;;;;;;;;;;10179427;28;19918;-67
2021/08/07 14:08:23;;;;;;;;;;;;;;;;;;10195348;28;19922;-67
2021/08/07 14:13:20;;;;;;;;;;;;;;;;;;10179979;28;19924;-65
2021/08/07 14:18:18;;;;;;;;;;;;;;;;;;10193821;28;19922;-66
2021/08/07 14:23:15;;;;;;;;;;;;;;;;;;10178858;28;19989;-64
2021/08/07 14:28:12;;;;;;;;;;;;;;;;;;10175803;28;19928;-66
2021/08/07 14:33:10;;;;;;;;;;;;;;;;;;10190737;28;20446;-65
2021/08/07 14:38:07;;;;;;;;;;;;;;;;;;10190118;28;19928;-67
2021/08/07 14:43:04;;;;;;;;;;;;;;;;;;10179494;28;20194;-66
2021/08/07 14:48:03;;;;;;;;;;;;;;;;;;10183366;28;19929;-65
2021/08/07 14:53:01;;;;;;;;;;;;;;;;;;10179748;28;20017;-66
2021/08/07 14:57:58;;;;;;;;;;;;;;;;;;10169967;28;19926;-67
2021/08/07 15:02:55;;;;;;;;;;;;;;;;;;10202446;28;19925;-68
2021/08/07 15:07:52;;;;;;;;;;;;;;;;;;10192398;28;19988;-65
2021/08/07 15:12:50;;;;;;;;;;;;;;;;;;10192622;28;19922;-69
2021/08/07 15:17:47;;;;;;;;;;;;;;;;;;10182487;28;20348;-68
2021/08/07 15:22:44;;;;;;;;;;;;;;;;;;10192341;28;20024;-67
2021/08/07 15:27:42;;;;;;;;;;;;;;;;;;10200175;28;19937;-67
2021/08/07 15:32:39;;;;;;;;;;;;;;;;;;10183490;28;19925;-67
2021/08/07 15:37:36;;;;;;;;;;;;;;;;;;10194286;28;20300;-68
2021/08/07 15:42:34;;;;;;;;;;;;;;;;;;10196968;28;19922;-69
2021/08/07 15:47:31;;;;;;;;;;;;;;;;;;10198689;28;20394;-67
2021/08/07 15:52:28;;;;;;;;;;;;;;;;;;10191022;28;19999;-68
2021/08/07 15:57:26;;;;;;;;;;;;;;;;;;10194451;28;20155;-67
2021/08/07 16:02:23;;;;;;;;;;;;;;;;;;10204912;28;20411;-67
2021/08/07 16:07:20;;;;;;;;;;;;;;;;;;10176356;28;19930;-66
2021/08/07 16:12:17;;;;;;;;;;;;;;;;;;10168340;28;19972;-65
2021/08/07 16:17:15;;;;;;;;;;;;;;;;;;10190261;28;19925;-68
2021/08/07 16:22:12;;;;;;;;;;;;;;;;;;10201445;28;20290;-67
2021/08/07 16:27:09;;;;;;;;;;;;;;;;;;10186953;28;19938;-66
2021/08/07 16:32:07;;;;;;;;;;;;;;;;;;10204852;28;19922;-67
2021/08/07 16:37:04;;;;;;;;;;;;;;;;;;10203453;28;19918;-67
2021/08/07 16:42:01;;;;;;;;;;;;;;;;;;10186326;28;19926;-67
2021/08/07 16:46:59;;;;;;;;;;;;;;;;;;10196198;28;19992;-67
2021/08/07 16:51:56;;;;;;;;;;;;;;;;;;10197358;28;20009;-68
2021/08/07 16:56:53;;;;;;;;;;;;;;;;;;10206541;28;20264;-67
2021/08/07 17:01:51;;;;;;;;;;;;;;;;;;10190941;28;20415;-67
2021/08/07 17:06:48;;;;;;;;;;;;;;;;;;10171922;28;19918;-67
2021/08/07 17:11:45;;;;;;;;;;;;;;;;;;10178876;28;19952;-68
2021/08/07 17:16:42;;;;;;;;;;;;;;;;;;10195840;28;19926;-66
2021/08/07 17:21:40;;;;;;;;;;;;;;;;;;10212507;28;19948;-67
2021/08/07 17:26:38;;;;;;;;;;;;;;;;;;10201008;28;19992;-67
2021/08/07 17:31:37;;;;;;;;;;;;;;;;;;10194446;28;20550;-66
2021/08/07 17:36:34;;;;;;;;;;;;;;;;;;10194092;28;19934;-68
2021/08/07 17:41:31;;;;;;;;;;;;;;;;;;10206854;28;19957;-67
2021/08/07 17:46:28;;;;;;;;;;;;;;;;;;10190014;28;19926;-69
2021/08/07 17:51:26;;;;;;;;;;;;;;;;;;10189985;28;19997;-67
2021/08/07 17:56:23;;;;;;;;;;;;;;;;;;10199776;28;19922;-67
2021/08/07 18:01:20;;;;;;;;;;;;;;;;;;10188630;28;19934;-68
2021/08/07 18:06:18;;;;;;;;;;;;;;;;;;10197666;28;19922;-69
2021/08/07 18:11:17;;;;;;;;;;;;;;;;;;10189694;28;20414;-67
2021/08/07 18:16:14;;;;;;;;;;;;;;;;;;10185932;28;19918;-69
2021/08/07 18:21:11;;;;;;;;;;;;;;;;;;10197781;28;19932;-68
2021/08/07 18:26:08;;;;;;;;;;;;;;;;;;10210706;28;19969;-67
2021/08/07 18:31:06;;;;;;;;;;;;;;;;;;10186854;28;19922;-69
2021/08/07 18:36:03;;;;;;;;;;;;;;;;;;10196765;28;20012;-68
2021/08/07 18:41:01;;;;;;;;;;;;;;;;;;10182218;28;19937;-68
2021/08/07 18:45:58;;;;;;;;;;;;;;;;;;10190264;28;19945;-67
2021/08/07 18:50:55;;;;;;;;;;;;;;;;;;10201106;28;19965;-68
2021/08/07 18:55:53;;;;;;;;;;;;;;;;;;10193222;28;19945;-67
2021/08/07 19:00:50;;;;;;;;;;;;;;;;;;10198796;28;20248;-67
2021/08/07 19:05:47;;;;;;;;;;;;;;;;;;10196915;28;20004;-68
2021/08/07 19:10:44;;;;;;;;;;;;;;;;;;10211270;28;19924;-67
2021/08/07 19:15:42;;;;;;;;;;;;;;;;;;10195765;28;19972;-67
2021/08/07 19:20:40;;;;;;;;;;;;;;;;;;10196745;28;19929;-68
2021/08/07 19:25:37;;;;;;;;;;;;;;;;;;10196387;28;19929;-67
2021/08/07 19:30:34;;;;;;;;;;;;;;;;;;10204010;28;19922;-66
2021/08/07 19:35:31;;;;;;;;;;;;;;;;;;10193595;28;19940;-67
2021/08/07 19:40:29;;;;;;;;;;;;;;;;;;10196115;28;19937;-67
2021/08/07 19:45:26;;;;;;;;;;;;;;;;;;10200036;28;20012;-68
2021/08/07 19:50:23;;;;;;;;;;;;;;;;;;10201322;28;20407;-68
2021/08/07 19:55:20;;;;;;;;;;;;;;;;;;10200274;28;20403;-66
2021/08/07 20:00:18;;;;;;;;;;;;;;;;;;10201086;28;19922;-67
2021/08/07 20:05:15;;;;;;;;;;;;;;;;;;10205179;28;20402;-68
2021/08/07 20:10:12;;;;;;;;;;;;;;;;;;10193823;28;19922;-68
2021/08/07 20:15:10;;;;;;;;;;;;;;;;;;10199091;28;20372;-66
2021/08/07 20:20:07;;;;;;;;;;;;;;;;;;10210266;28;19926;-68
2021/08/07 20:25:04;;;;;;;;;;;;;;;;;;10207477;28;19921;-67
2021/08/07 20:30:01;;;;;;;;;;;;;;;;;;10193515;28;19965;-68
2021/08/07 20:34:59;;;;;;;;;;;;;;;;;;10180643;28;20418;-68
2021/08/07 20:39:56;;;;;;;;;;;;;;;;;;10180592;28;19989;-67
2021/08/07 20:44:53;;;;;;;;;;;;;;;;;;10189885;28;19929;-67
2021/08/07 20:49:50;;;;;;;;;;;;;;;;;;10197889;28;19922;-69
2021/08/07 20:54:48;;;;;;;;;;;;;;;;;;10195767;28;20356;-68
2021/08/07 20:59:45;;;;;;;;;;;;;;;;;;10218404;28;20025;-68
2021/08/07 21:04:42;;;;;;;;;;;;;;;;;;10205588;28;19922;-67
2021/08/07 21:09:40;;;;;;;;;;;;;;;;;;10208719;28;19951;-67
2021/08/07 21:14:38;;;;;;;;;;;;;;;;;;10197902;28;19930;-68
2021/08/07 21:19:35;;;;;;;;;;;;;;;;;;10201692;28;19994;-66
2021/08/07 21:24:33;;;;;;;;;;;;;;;;;;10199391;28;20303;-67
2021/08/07 21:29:30;;;;;;;;;;;;;;;;;;10200660;28;19918;-68
2021/08/07 21:34:27;;;;;;;;;;;;;;;;;;10209249;28;19925;-66
2021/08/07 21:39:24;;;;;;;;;;;;;;;;;;10190790;28;19973;-68
2021/08/07 21:44:22;;;;;;;;;;;;;;;;;;10188768;28;20304;-66
2021/08/07 21:49:19;;;;;;;;;;;;;;;;;;10190892;28;19925;-68
2021/08/07 21:54:16;;;;;;;;;;;;;;;;;;10189523;28;19972;-67
2021/08/07 21:59:13;;;;;;;;;;;;;;;;;;10193038;28;19925;-67
2021/08/07 22:04:11;;;;;;;;;;;;;;;;;;10196323;28;20384;-68
2021/08/07 22:09:08;;;;;;;;;;;;;;;;;;10187285;28;20185;-67
2021/08/07 22:14:05;;;;;;;;;;;;;;;;;;10186981;28;19910;-67
2021/08/07 22:19:02;;;;;;;;;;;;;;;;;;10188650;28;19917;-65
2021/08/07 22:24:00;;;;;;;;;;;;;;;;;;10197886;28;19922;-66
2021/08/07 22:28:57;;;;;;;;;;;;;;;;;;10194226;28;19938;-65
2021/08/07 22:33:56;;;;;;;;;;;;;;;;;;10191476;28;20355;-66
2021/08/07 22:38:53;;;;;;;;;;;;;;;;;;10204553;28;19930;-68
2021/08/07 22:43:50;;;;;;;;;;;;;;;;;;10205348;28;19926;-67
2021/08/07 22:48:47;;;;;;;;;;;;;;;;;;10199950;28;19918;-67
2021/08/07 22:53:44;;;;;;;;;;;;;;;;;;10185460;28;19973;-67
2021/08/07 22:58:43;;;;;;;;;;;;;;;;;;10191732;28;20013;-68
2021/08/07 23:03:40;;;;;;;;;;;;;;;;;;10196754;28;20354;-67
2021/08/07 23:08:37;;;;;;;;;;;;;;;;;;10217065;28;19933;-67
2021/08/07 23:13:35;;;;;;;;;;;;;;;;;;10191627;28;19932;-68
2021/08/07 23:18:32;;;;;;;;;;;;;;;;;;10200851;28;20394;-67
2021/08/07 23:23:29;;;;;;;;;;;;;;;;;;10202902;28;20566;-69
2021/08/07 23:28:27;;;;;;;;;;;;;;;;;;10206456;28;20368;-69
2021/08/07 23:33:25;;;;;;;;;;;;;;;;;;10204706;28;19918;-69
2021/08/07 23:38:23;;;;;;;;;;;;;;;;;;10206803;28;19925;-68
2021/08/07 23:43:21;;;;;;;;;;;;;;;;;;10201404;28;19925;-68
2021/08/07 23:48:19;;;;;;;;;;;;;;;;;;10209972;28;20303;-70
2021/08/07 23:53:16;;;;;;;;;;;;;;;;;;10205606;28;19922;-69
2021/08/07 23:58:13;;;;;;;;;;;;;;;;;;10221221;28;20005;-69
